Time;durP1;ratioP1;P1;durP2;ratioP2;P2;SDS_P1;SDS_P2;PMS_P1;PMS_P2;Temp;Humidity;BMP_temperature;BMP_pressure;BME280_temperature;BME280_humidity;BME280_pressure;Samples;Min_cycle;Max_cycle;Signal;HPM_P1;HPM_P2
2023/10/03 09:13:38;;;;;;;4.20;3.63;;;25.00;83.00;;;;;;4944892;28;20527;-85
2023/10/03 09:16:08;;;;;;;2.90;2.70;;;25.00;82.90;;;;;;4958004;29;20507;-88
2023/10/03 09:18:40;;;;;;;3.83;3.40;;;25.00;82.90;;;;;;4956990;29;21064;-88
2023/10/03 09:21:08;;;;;;;4.97;3.60;;;25.00;82.80;;;;;;4957955;29;20445;-88
2023/10/03 09:23:59;;;;;;;5.33;2.80;;;25.00;83.00;;;;;;4957844;28;20438;-88
2023/10/03 09:26:26;;;;;;;3.90;3.47;;;25.10;83.10;;;;;;4957145;29;20457;-88
2023/10/03 09:28:54;;;;;;;4.30;3.53;;;25.00;83.10;;;;;;4956873;29;20465;-88
2023/10/03 09:31:22;;;;;;;9.23;3.30;;;25.10;83.20;;;;;;4956475;29;20453;-88
2023/10/03 09:33:49;;;;;;;4.60;3.40;;;25.00;83.30;;;;;;4955804;29;20457;-88
2023/10/03 09:36:16;;;;;;;5.77;3.70;;;25.00;83.40;;;;;;4956598;29;20438;-88
2023/10/03 09:38:45;;;;;;;6.00;3.47;;;25.00;83.60;;;;;;4956547;29;20490;-88
2023/10/03 09:41:21;;;;;;;4.10;3.70;;;25.00;83.70;;;;;;4957172;28;20458;-88
2023/10/03 09:43:50;;;;;;;3.73;3.20;;;25.00;83.90;;;;;;4957488;28;20437;-89
2023/10/03 09:46:23;;;;;;;7.07;3.90;;;25.00;83.80;;;;;;4957098;28;20446;-88
2023/10/03 09:48:54;;;;;;;5.90;3.87;;;25.00;83.90;;;;;;4956641;28;20441;-88
2023/10/03 09:51:46;;;;;;;4.60;3.07;;;25.00;84.00;;;;;;4956236;29;20470;-89
2023/10/03 09:54:23;;;;;;;3.83;3.23;;;25.00;83.80;;;;;;4956128;28;20442;-88
2023/10/03 09:56:52;;;;;;;3.60;3.27;;;25.00;83.80;;;;;;4956022;29;20475;-89
2023/10/03 09:59:20;;;;;;;3.67;3.37;;;25.00;83.80;;;;;;4956058;28;20493;-88
2023/10/03 10:01:49;;;;;;;4.13;3.83;;;25.00;83.70;;;;;;4955246;29;20450;-89
2023/10/03 10:04:19;;;;;;;3.30;3.00;;;25.00;83.70;;;;;;4955078;29;20449;-88
2023/10/03 10:06:51;;;;;;;3.80;3.20;;;25.00;83.70;;;;;;4955084;29;20532;-89
2023/10/03 10:09:27;;;;;;;3.90;2.87;;;25.10;83.80;;;;;;4954932;28;20441;-89
2023/10/03 10:12:18;;;;;;;3.13;2.90;;;25.00;83.70;;;;;;4954659;28;20988;-88
2023/10/03 10:15:14;;;;;;;3.10;2.80;;;25.00;83.80;;;;;;4954890;28;20450;-89
2023/10/03 10:17:45;;;;;;;2.60;2.40;;;25.00;83.80;;;;;;4955001;28;20453;-87
2023/10/03 10:20:13;;;;;;;2.93;2.63;;;25.00;83.80;;;;;;4954766;29;20489;-88
2023/10/03 10:23:16;;;;;;;3.70;2.97;;;25.00;83.90;;;;;;4955710;28;20521;-88
2023/10/03 10:25:51;;;;;;;7.40;2.90;;;25.00;83.90;;;;;;4956996;28;20500;-88
2023/10/03 10:28:26;;;;;;;5.90;3.50;;;25.10;83.50;;;;;;4956760;29;20521;-88
2023/10/03 10:31:21;;;;;;;3.50;3.20;;;25.10;83.10;;;;;;4956685;28;20774;-88
2023/10/03 10:33:50;;;;;;;3.40;3.00;;;25.10;82.80;;;;;;4956543;29;20457;-89
2023/10/03 10:36:18;;;;;;;3.50;3.13;;;25.10;82.80;;;;;;4956485;29;20442;-88
2023/10/03 10:38:55;;;;;;;4.30;3.90;;;25.20;82.80;;;;;;4956420;29;20445;-88
2023/10/03 10:41:26;;;;;;;3.30;2.90;;;25.10;82.60;;;;;;4956426;28;20486;-88
2023/10/03 10:44:09;;;;;;;3.97;3.30;;;25.10;82.50;;;;;;4956416;29;20469;-88
2023/10/03 10:46:38;;;;;;;3.80;3.03;;;25.20;82.50;;;;;;4956426;28;20537;-89
2023/10/03 10:49:27;;;;;;;3.70;2.90;;;25.20;82.60;;;;;;4956410;29;20446;-88
2023/10/03 10:51:57;;;;;;;3.50;3.20;;;25.20;82.50;;;;;;4956289;29;20442;-88
2023/10/03 10:54:24;;;;;;;3.50;2.83;;;25.20;82.40;;;;;;4956322;29;20446;-88
2023/10/03 10:56:59;;;;;;;5.40;2.90;;;25.20;82.60;;;;;;4956239;29;20442;-88
2023/10/03 10:59:27;;;;;;;4.20;2.53;;;25.20;83.10;;;;;;4956213;28;20525;-89
2023/10/03 11:01:54;;;;;;;3.87;2.90;;;25.10;83.40;;;;;;4956138;29;20961;-89
2023/10/03 11:04:24;;;;;;;3.50;3.20;;;25.10;83.80;;;;;;4956128;28;20496;-89
2023/10/03 11:06:52;;;;;;;4.10;3.33;;;25.10;84.20;;;;;;4956027;29;20438;-89
2023/10/03 11:09:21;;;;;;;4.63;3.17;;;25.10;84.20;;;;;;4956008;29;20452;-88
2023/10/03 11:11:49;;;;;;;2.90;2.50;;;25.00;84.30;;;;;;4955637;29;20937;-88
2023/10/03 11:14:26;;;;;;;3.03;2.73;;;25.00;84.30;;;;;;4955938;29;20450;-89
2023/10/03 11:16:52;;;;;;;3.97;2.97;;;25.00;84.40;;;;;;4955979;29;20442;-89
2023/10/03 11:19:19;;;;;;;3.93;2.93;;;25.00;84.40;;;;;;4955801;29;20818;-88
2023/10/03 11:21:46;;;;;;;5.70;2.63;;;25.00;84.40;;;;;;4955797;28;21004;-89
2023/10/03 11:24:15;;;;;;;3.47;2.67;;;25.10;84.60;;;;;;4955929;28;20489;-88
2023/10/03 11:26:45;;;;;;;4.53;2.57;;;25.00;84.50;;;;;;4955968;28;20453;-88
2023/10/03 11:29:14;;;;;;;2.60;2.17;;;25.00;84.50;;;;;;4955715;29;20806;-89
2023/10/03 11:31:42;;;;;;;2.40;2.20;;;25.00;84.50;;;;;;4955688;29;20446;-89
2023/10/03 11:34:09;;;;;;;2.23;2.03;;;25.00;84.50;;;;;;4955275;28;20529;-88
2023/10/03 11:36:45;;;;;;;2.80;2.50;;;25.00;84.40;;;;;;4955282;29;20446;-89
2023/10/03 11:39:13;;;;;;;4.13;2.40;;;25.00;84.40;;;;;;4955506;29;20543;-89
2023/10/03 11:41:40;;;;;;;3.27;2.97;;;25.00;84.30;;;;;;4955315;29;20977;-88
2023/10/03 11:44:20;;;;;;;3.00;2.00;;;25.00;85.00;;;;;;4955360;29;20876;-89
2023/10/03 11:46:50;;;;;;;2.37;2.17;;;25.00;84.20;;;;;;4955078;29;20441;-89
2023/10/03 11:49:17;;;;;;;2.40;2.10;;;25.10;84.10;;;;;;4955397;29;20457;-88
2023/10/03 11:51:44;;;;;;;2.30;2.10;;;25.00;83.90;;;;;;4955505;29;20442;-89
2023/10/03 11:54:13;;;;;;;3.03;2.50;;;25.00;83.90;;;;;;4955240;29;20442;-89
2023/10/03 11:56:42;;;;;;;2.20;2.00;;;25.00;83.80;;;;;;4955138;28;20877;-89
2023/10/03 11:59:09;;;;;;;1.93;1.83;;;25.00;83.80;;;;;;4955185;29;20442;-88
2023/10/03 12:01:37;;;;;;;2.47;2.27;;;25.00;83.70;;;;;;4955158;29;20546;-89
2023/10/03 12:04:04;;;;;;;2.37;2.17;;;25.00;83.70;;;;;;4955134;28;20891;-89
2023/10/03 12:06:31;;;;;;;2.33;2.10;;;25.00;83.60;;;;;;4955037;29;20938;-89
2023/10/03 12:08:58;;;;;;;2.40;2.07;;;25.00;83.60;;;;;;4955144;29;20534;-88
2023/10/03 12:11:25;;;;;;;2.93;1.87;;;25.00;83.60;;;;;;4955024;29;20552;-89
2023/10/03 12:13:52;;;;;;;3.27;2.17;;;25.00;83.50;;;;;;4954844;29;20552;-89
2023/10/03 12:16:20;;;;;;;3.23;2.30;;;25.00;83.50;;;;;;4954871;29;20929;-89
2023/10/03 12:18:48;;;;;;;2.10;1.90;;;25.00;83.40;;;;;;4955088;29;20488;-89
2023/10/03 12:21:15;;;;;;;2.33;1.90;;;25.00;83.50;;;;;;4955003;29;20493;-89
2023/10/03 12:23:43;;;;;;;2.27;2.07;;;25.00;83.40;;;;;;4954940;29;20448;-89
2023/10/03 12:26:11;;;;;;;2.90;1.80;;;25.00;83.40;;;;;;4955150;29;20461;-89
2023/10/03 12:28:38;;;;;;;2.83;2.07;;;25.00;83.40;;;;;;4954914;29;20484;-89
2023/10/03 12:31:06;;;;;;;2.27;2.07;;;25.00;83.40;;;;;;4954956;29;20434;-89
2023/10/03 12:33:33;;;;;;;1.70;1.60;;;25.00;83.30;;;;;;4954753;29;20446;-89
2023/10/03 12:36:04;;;;;;;2.50;2.30;;;25.00;83.30;;;;;;4954741;29;20933;-89
2023/10/03 12:38:31;;;;;;;2.50;2.30;;;25.00;83.20;;;;;;4954889;29;20438;-88
2023/10/03 12:40:59;;;;;;;2.10;1.90;;;25.00;83.20;;;;;;4954699;29;20911;-89
2023/10/03 12:43:26;;;;;;;2.10;1.80;;;25.00;83.10;;;;;;4954747;29;20446;-89
2023/10/03 12:45:53;;;;;;;1.90;1.67;;;25.00;83.00;;;;;;4954853;28;20453;-89
2023/10/03 12:48:20;;;;;;;2.40;2.13;;;25.00;83.00;;;;;;4958107;29;20813;-89
2023/10/03 12:50:50;;;;;;;3.30;2.20;;;25.00;82.90;;;;;;4958657;29;20449;-89
2023/10/03 12:53:18;;;;;;;2.60;2.00;;;25.00;82.90;;;;;;4958554;29;20804;-88
2023/10/03 12:55:46;;;;;;;1.87;1.77;;;25.00;82.90;;;;;;4958624;28;20454;-89
2023/10/03 12:58:18;;;;;;;1.70;1.40;;;25.00;82.80;;;;;;4958572;29;20505;-89
2023/10/03 13:00:47;;;;;;;2.00;1.73;;;25.00;82.80;;;;;;4958490;28;20500;-89
2023/10/03 13:03:13;;;;;;;2.23;2.03;;;25.00;82.80;;;;;;4958251;29;20450;-88
2023/10/03 13:05:40;;;;;;;1.83;1.70;;;25.00;82.80;;;;;;4958329;29;20795;-89
2023/10/03 13:08:08;;;;;;;1.67;1.57;;;25.00;82.80;;;;;;4958234;29;20444;-89
2023/10/03 13:10:38;;;;;;;1.90;1.70;;;25.00;82.80;;;;;;4958108;28;20556;-89
2023/10/03 13:13:08;;;;;;;1.90;1.80;;;25.00;82.80;;;;;;4958007;28;20898;-88
2023/10/03 13:15:35;;;;;;;1.97;1.80;;;25.00;83.70;;;;;;4957986;28;21016;-88
2023/10/03 13:18:02;;;;;;;2.30;2.10;;;25.10;83.00;;;;;;4958132;29;20496;-88
2023/10/03 13:20:29;;;;;;;1.70;1.60;;;25.00;82.90;;;;;;4957989;29;20570;-88
2023/10/03 13:22:57;;;;;;;2.37;2.13;;;25.00;82.90;;;;;;4957908;29;20442;-88
2023/10/03 13:25:25;;;;;;;2.50;2.03;;;25.00;83.00;;;;;;4957788;29;20497;-88
2023/10/03 13:27:54;;;;;;;1.90;1.70;;;25.00;83.00;;;;;;4957758;29;20445;-88
2023/10/03 13:30:24;;;;;;;1.73;1.53;;;25.00;83.10;;;;;;4957946;29;20476;-88
2023/10/03 13:32:53;;;;;;;1.70;1.60;;;25.00;83.00;;;;;;4958035;29;20442;-88
2023/10/03 13:35:21;;;;;;;1.70;1.60;;;25.00;83.00;;;;;;4957671;29;20824;-88
2023/10/03 13:37:48;;;;;;;1.97;1.87;;;25.00;83.00;;;;;;4957645;29;20869;-89
2023/10/03 13:40:17;;;;;;;2.00;1.80;;;25.00;83.00;;;;;;4957603;29;20497;-88
2023/10/03 13:42:44;;;;;;;1.93;1.70;;;25.00;83.00;;;;;;4957572;29;20500;-88
2023/10/03 13:45:13;;;;;;;2.00;1.73;;;25.00;82.90;;;;;;4957441;29;20442;-88
2023/10/03 13:47:40;;;;;;;2.00;1.80;;;25.00;82.90;;;;;;4957494;29;20536;-88
2023/10/03 13:50:09;;;;;;;2.80;2.13;;;25.00;83.00;;;;;;4957507;29;20453;-88
2023/10/03 13:52:37;;;;;;;3.13;2.27;;;25.00;82.90;;;;;;4957231;28;21024;-89
2023/10/03 13:55:06;;;;;;;1.83;1.73;;;25.00;82.90;;;;;;4957746;29;20449;-88
2023/10/03 13:57:34;;;;;;;2.70;1.73;;;25.00;83.00;;;;;;4957156;28;20987;-88
2023/10/03 14:00:01;;;;;;;1.70;1.60;;;25.00;82.90;;;;;;4957206;29;20485;-89
2023/10/03 14:02:29;;;;;;;1.50;1.40;;;25.00;83.00;;;;;;4957239;29;20516;-89
2023/10/03 14:04:56;;;;;;;1.43;1.33;;;25.00;83.00;;;;;;4957148;29;20537;-88
2023/10/03 14:07:23;;;;;;;1.60;1.40;;;25.00;83.00;;;;;;4957151;29;20442;-88
2023/10/03 14:09:50;;;;;;;2.43;1.30;;;25.00;83.00;;;;;;4957083;29;20450;-88
2023/10/03 14:12:17;;;;;;;1.90;1.53;;;25.00;82.90;;;;;;4956915;29;20481;-88
2023/10/03 14:14:45;;;;;;;2.27;1.60;;;25.00;82.80;;;;;;4956987;29;20942;-88
2023/10/03 14:17:12;;;;;;;1.60;1.40;;;25.00;82.80;;;;;;4956847;29;20473;-88
2023/10/03 14:19:40;;;;;;;1.60;1.40;;;25.00;82.80;;;;;;4957047;29;20939;-89
2023/10/03 14:22:07;;;;;;;1.73;1.63;;;25.00;82.80;;;;;;4956719;29;21016;-89
2023/10/03 14:24:34;;;;;;;1.67;1.53;;;25.00;82.80;;;;;;4956832;29;20438;-89
2023/10/03 14:27:01;;;;;;;1.60;1.17;;;25.00;82.80;;;;;;4956818;29;20938;-89
2023/10/03 14:29:28;;;;;;;1.47;1.20;;;25.00;82.80;;;;;;4956750;29;20778;-89
2023/10/03 14:31:55;;;;;;;1.73;1.60;;;25.00;82.70;;;;;;4956713;29;20541;-88
2023/10/03 14:34:22;;;;;;;1.50;1.40;;;25.00;82.70;;;;;;4956552;29;20959;-89
2023/10/03 14:36:50;;;;;;;1.40;1.30;;;25.00;82.70;;;;;;4956604;29;20453;-88
2023/10/03 14:39:24;;;;;;;1.40;1.30;;;24.90;82.60;;;;;;4956643;28;20849;-89
2023/10/03 14:41:51;;;;;;;1.60;1.40;;;24.90;82.50;;;;;;4956370;29;20517;-89
2023/10/03 14:44:18;;;;;;;2.03;1.30;;;25.00;82.50;;;;;;4956385;29;20442;-88
2023/10/03 14:46:45;;;;;;;2.17;1.53;;;24.90;82.30;;;;;;4956384;29;20444;-89
2023/10/03 14:49:14;;;;;;;1.70;1.60;;;25.00;82.40;;;;;;4956357;29;20437;-89
2023/10/03 14:51:41;;;;;;;1.37;1.27;;;24.90;82.30;;;;;;4956286;29;20453;-89
2023/10/03 14:54:11;;;;;;;1.50;1.40;;;25.00;82.30;;;;;;4956303;29;20442;-89
2023/10/03 14:56:38;;;;;;;1.63;1.40;;;24.90;82.20;;;;;;4956204;29;20489;-89
2023/10/03 14:59:05;;;;;;;1.63;1.20;;;24.90;82.20;;;;;;4956263;29;20464;-88
2023/10/03 15:01:31;;;;;;;1.73;1.40;;;25.00;82.20;;;;;;4956016;29;20489;-89
2023/10/03 15:03:58;;;;;;;2.40;1.57;;;25.00;82.20;;;;;;4955975;29;20442;-89
2023/10/03 15:06:26;;;;;;;1.90;1.60;;;24.90;82.10;;;;;;4956106;29;20476;-89
2023/10/03 15:08:53;;;;;;;1.70;1.33;;;24.90;82.10;;;;;;4955728;28;20881;-89
2023/10/03 15:11:22;;;;;;;1.67;1.57;;;24.90;82.10;;;;;;4955887;29;20871;-88
2023/10/03 15:13:49;;;;;;;1.80;1.30;;;24.90;82.10;;;;;;4955631;28;20481;-88
2023/10/03 15:16:16;;;;;;;1.60;1.43;;;25.00;82.20;;;;;;4956000;28;20446;-88
2023/10/03 15:18:43;;;;;;;1.20;1.00;;;24.90;82.00;;;;;;4955878;29;21004;-89
2023/10/03 15:21:11;;;;;;;1.40;1.30;;;24.90;82.00;;;;;;4955605;29;20821;-89
2023/10/03 15:23:38;;;;;;;1.50;1.40;;;25.00;82.10;;;;;;4955899;29;20454;-89
2023/10/03 15:26:05;;;;;;;1.60;1.50;;;24.90;82.00;;;;;;4955707;29;20446;-89
2023/10/03 15:28:33;;;;;;;1.50;1.40;;;24.90;82.00;;;;;;4955722;29;20984;-88
2023/10/03 15:31:00;;;;;;;5.10;1.73;;;24.90;82.00;;;;;;4955633;28;20449;-89
2023/10/03 15:33:28;;;;;;;2.00;1.40;;;24.90;82.10;;;;;;4955640;29;20792;-89
2023/10/03 15:35:56;;;;;;;1.53;1.43;;;24.90;82.10;;;;;;4955471;29;20438;-89
2023/10/03 15:38:24;;;;;;;2.07;1.23;;;24.90;82.10;;;;;;4955543;29;20438;-89
2023/10/03 15:40:51;;;;;;;2.43;1.70;;;24.90;82.10;;;;;;4955414;29;20498;-88
2023/10/03 15:43:19;;;;;;;1.60;1.37;;;24.90;82.10;;;;;;4955415;29;20525;-89
2023/10/03 15:45:47;;;;;;;1.60;1.23;;;24.90;83.00;;;;;;4955389;29;20452;-89
2023/10/03 15:48:15;;;;;;;1.33;1.10;;;24.90;82.20;;;;;;4955393;29;20868;-89
2023/10/03 15:50:42;;;;;;;1.60;1.30;;;24.90;82.10;;;;;;4955274;29;20449;-89
2023/10/03 15:53:10;;;;;;;1.63;1.53;;;24.90;82.20;;;;;;4955303;29;20441;-89
2023/10/03 15:55:39;;;;;;;1.63;1.23;;;24.80;82.10;;;;;;4955263;29;20533;-88
2023/10/03 15:58:06;;;;;;;2.43;1.60;;;24.90;82.30;;;;;;4955280;29;20465;-89
2023/10/03 16:00:33;;;;;;;2.13;1.30;;;24.90;82.20;;;;;;4955083;29;20493;-88
2023/10/03 16:03:01;;;;;;;2.20;2.00;;;24.80;82.10;;;;;;4955081;29;20442;-89
2023/10/03 16:05:29;;;;;;;1.40;1.27;;;24.90;82.20;;;;;;4955111;29;20448;-89
2023/10/03 16:07:56;;;;;;;1.73;1.40;;;24.80;82.20;;;;;;4955224;28;20517;-89
2023/10/03 16:10:23;;;;;;;2.20;1.77;;;24.80;82.10;;;;;;4955127;29;20556;-89
2023/10/03 16:12:51;;;;;;;1.40;1.07;;;24.80;82.20;;;;;;4954800;29;20885;-89
2023/10/03 16:15:17;;;;;;;1.50;1.40;;;24.80;82.20;;;;;;4955141;29;20801;-89
2023/10/03 16:17:45;;;;;;;3.43;1.70;;;24.80;82.10;;;;;;4954980;28;20481;-89
2023/10/03 16:20:16;;;;;;;1.67;1.57;;;24.80;82.30;;;;;;4954961;28;20956;-89
2023/10/03 16:22:42;;;;;;;1.70;1.30;;;25.00;82.40;;;;;;4958884;29;20921;-89
2023/10/03 16:25:10;;;;;;;1.60;1.50;;;24.80;82.20;;;;;;4959005;29;20934;-89
2023/10/03 16:27:38;;;;;;;2.13;1.20;;;24.80;82.10;;;;;;4959141;28;20451;-89
2023/10/03 16:30:06;;;;;;;1.60;1.40;;;24.80;82.10;;;;;;4958989;29;20449;-89
2023/10/03 16:32:33;;;;;;;1.50;1.40;;;24.80;82.20;;;;;;4958828;29;20454;-89
2023/10/03 16:35:00;;;;;;;1.73;1.63;;;24.80;82.10;;;;;;4958913;29;20778;-89
2023/10/03 16:37:29;;;;;;;1.77;1.40;;;24.80;82.10;;;;;;4958606;29;20441;-89
2023/10/03 16:39:56;;;;;;;1.53;1.43;;;24.80;82.10;;;;;;4958677;29;20457;-88
2023/10/03 16:42:23;;;;;;;1.83;1.60;;;24.80;82.10;;;;;;4958685;29;20485;-89
2023/10/03 16:44:50;;;;;;;1.60;1.50;;;24.80;82.10;;;;;;4958687;29;20857;-89
2023/10/03 16:47:17;;;;;;;2.03;1.73;;;24.80;82.10;;;;;;4958611;29;21103;-89
2023/10/03 16:49:44;;;;;;;1.33;1.13;;;24.80;82.10;;;;;;4958486;29;20449;-89
2023/10/03 16:52:11;;;;;;;1.60;1.50;;;24.80;82.00;;;;;;4958466;29;20791;-89
2023/10/03 16:54:39;;;;;;;1.90;1.40;;;24.80;82.10;;;;;;4958540;29;20532;-89
2023/10/03 16:57:06;;;;;;;1.20;1.10;;;24.80;82.00;;;;;;4958321;29;20448;-89
2023/10/03 16:59:34;;;;;;;1.57;1.30;;;24.80;82.10;;;;;;4958494;29;20445;-89
2023/10/03 17:02:00;;;;;;;1.30;1.17;;;24.80;82.10;;;;;;4958387;28;20489;-89
2023/10/03 17:04:27;;;;;;;1.40;1.30;;;24.80;82.00;;;;;;4958366;29;20441;-88
2023/10/03 17:06:58;;;;;;;1.50;1.40;;;24.80;82.00;;;;;;4958275;28;20442;-89
2023/10/03 17:09:25;;;;;;;2.53;1.77;;;24.80;82.00;;;;;;4958303;28;20446;-88
2023/10/03 17:11:56;;;;;;;1.70;1.60;;;24.80;82.00;;;;;;4957752;28;20469;-89
2023/10/03 17:14:23;;;;;;;2.53;1.30;;;24.80;82.00;;;;;;4958196;29;20504;-88
2023/10/03 17:16:50;;;;;;;1.60;1.20;;;24.80;82.00;;;;;;4958040;29;20446;-89
2023/10/03 17:19:17;;;;;;;1.47;1.20;;;24.80;82.00;;;;;;4958071;28;20456;-89
2023/10/03 17:21:44;;;;;;;1.30;1.20;;;24.80;82.00;;;;;;4957877;29;20496;-88
2023/10/03 17:24:12;;;;;;;1.93;1.27;;;24.80;82.10;;;;;;4957932;29;20445;-89
2023/10/03 17:26:39;;;;;;;1.60;1.50;;;24.70;81.90;;;;;;4957895;29;20441;-88
2023/10/03 17:29:11;;;;;;;3.90;1.60;;;24.70;81.90;;;;;;4957884;29;20450;-88
2023/10/03 17:31:40;;;;;;;1.33;1.23;;;24.70;81.90;;;;;;4957992;29;20455;-89
2023/10/03 17:34:08;;;;;;;2.07;1.37;;;24.70;81.90;;;;;;4957091;28;20449;-89
2023/10/03 17:36:35;;;;;;;1.50;1.20;;;24.70;81.90;;;;;;4957559;29;20972;-88
2023/10/03 17:39:07;;;;;;;1.50;1.40;;;24.70;81.90;;;;;;4957600;29;20477;-89
2023/10/03 17:41:35;;;;;;;1.40;1.30;;;24.70;81.90;;;;;;4957492;29;20494;-88
2023/10/03 17:44:02;;;;;;;1.57;1.33;;;24.70;81.90;;;;;;4957648;29;20528;-89
2023/10/03 17:46:31;;;;;;;1.40;1.10;;;24.70;81.90;;;;;;4957505;29;20481;-89
2023/10/03 17:48:59;;;;;;;2.03;1.50;;;24.70;81.90;;;;;;4957754;28;20537;-89
2023/10/03 17:51:26;;;;;;;1.40;1.20;;;24.70;81.90;;;;;;4957411;29;20953;-88
2023/10/03 17:53:52;;;;;;;1.23;1.13;;;24.70;81.90;;;;;;4957388;29;20442;-88
2023/10/03 17:56:19;;;;;;;1.47;1.37;;;24.70;81.90;;;;;;4957192;29;20452;-88
2023/10/03 17:58:46;;;;;;;2.17;1.30;;;24.70;82.80;;;;;;4957344;29;20513;-88
2023/10/03 18:01:21;;;;;;;1.80;1.40;;;24.70;81.90;;;;;;4957201;29;20489;-88
2023/10/03 18:03:49;;;;;;;1.57;1.27;;;24.70;81.90;;;;;;4957299;29;20449;-89
2023/10/03 18:06:16;;;;;;;1.40;1.20;;;24.70;81.90;;;;;;4957325;29;20446;-89
2023/10/03 18:08:44;;;;;;;2.20;1.40;;;24.70;81.90;;;;;;4957377;29;20445;-89
2023/10/03 18:11:10;;;;;;;2.00;1.60;;;24.70;81.90;;;;;;4956986;28;20465;-89
2023/10/03 18:13:37;;;;;;;1.40;1.30;;;24.70;81.90;;;;;;4956822;28;20561;-89
2023/10/03 18:16:05;;;;;;;1.47;1.07;;;24.70;81.90;;;;;;4956855;29;20533;-89
2023/10/03 18:18:32;;;;;;;2.07;1.50;;;24.70;81.90;;;;;;4957099;29;20442;-89
2023/10/03 18:21:00;;;;;;;1.40;1.30;;;24.70;81.90;;;;;;4956915;28;20434;-89
2023/10/03 18:23:27;;;;;;;1.73;1.63;;;24.70;81.90;;;;;;4957165;29;20480;-88
2023/10/03 18:25:54;;;;;;;1.40;1.30;;;24.70;81.80;;;;;;4956891;29;20445;-88
2023/10/03 18:28:21;;;;;;;1.73;1.63;;;24.70;81.90;;;;;;4956918;29;20812;-89
2023/10/03 18:30:48;;;;;;;1.70;1.50;;;24.70;81.80;;;;;;4956776;29;20446;-88
2023/10/03 18:33:15;;;;;;;1.60;1.40;;;24.70;81.80;;;;;;4956673;29;20450;-89
2023/10/03 18:35:42;;;;;;;1.97;1.43;;;24.70;81.80;;;;;;4956582;29;20945;-88
2023/10/03 18:38:10;;;;;;;1.53;1.43;;;24.70;81.90;;;;;;4956651;28;20449;-88
2023/10/03 18:40:37;;;;;;;1.80;1.20;;;24.70;81.80;;;;;;4956552;29;20469;-89
2023/10/03 18:43:05;;;;;;;1.40;1.00;;;24.70;81.80;;;;;;4956406;29;20576;-88
2023/10/03 18:45:32;;;;;;;1.40;1.10;;;24.70;81.80;;;;;;4955618;28;20524;-89
2023/10/03 18:47:59;;;;;;;1.50;1.33;;;24.70;81.80;;;;;;4956440;29;20446;-88
2023/10/03 18:50:26;;;;;;;1.43;1.33;;;24.70;81.70;;;;;;4956381;29;20444;-88
2023/10/03 18:52:53;;;;;;;1.40;1.17;;;24.70;81.80;;;;;;4956277;29;20437;-89
2023/10/03 18:55:21;;;;;;;1.90;1.20;;;24.60;81.60;;;;;;4956201;29;20964;-89
2023/10/03 18:57:49;;;;;;;1.60;1.50;;;24.60;81.60;;;;;;4956097;29;20448;-89
2023/10/03 19:00:16;;;;;;;1.30;1.20;;;24.60;81.60;;;;;;4956160;29;20955;-88
2023/10/03 19:02:43;;;;;;;1.20;1.07;;;24.70;81.80;;;;;;4955992;29;20489;-89
2023/10/03 19:05:11;;;;;;;1.40;1.10;;;24.60;81.60;;;;;;4956239;29;20472;-88
2023/10/03 19:07:39;;;;;;;1.37;1.03;;;24.60;81.60;;;;;;4956028;29;20437;-89
2023/10/03 19:10:07;;;;;;;1.33;1.17;;;24.60;81.50;;;;;;4955791;29;20477;-89
2023/10/03 19:12:35;;;;;;;1.20;1.10;;;24.60;81.60;;;;;;4955750;28;20482;-89
2023/10/03 19:15:04;;;;;;;1.50;1.40;;;24.60;81.60;;;;;;4955898;29;20441;-89
2023/10/03 19:17:32;;;;;;;1.60;1.30;;;24.70;81.70;;;;;;4955777;29;20477;-89
2023/10/03 19:19:59;;;;;;;1.80;1.47;;;24.60;81.50;;;;;;4955854;29;20445;-89
2023/10/03 19:22:26;;;;;;;1.80;1.70;;;24.60;81.50;;;;;;4955645;29;20490;-88
2023/10/03 19:24:53;;;;;;;1.37;1.20;;;24.60;81.60;;;;;;4955760;29;20457;-89
2023/10/03 19:27:20;;;;;;;1.30;1.20;;;24.60;81.50;;;;;;4955717;29;21025;-89
2023/10/03 19:29:48;;;;;;;1.40;1.30;;;24.60;81.50;;;;;;4955660;29;20441;-89
2023/10/03 19:32:16;;;;;;;1.43;1.20;;;24.60;81.50;;;;;;4955589;29;20530;-89
2023/10/03 19:34:43;;;;;;;1.50;1.30;;;24.60;81.50;;;;;;4955787;28;20442;-88
2023/10/03 19:37:12;;;;;;;2.03;1.30;;;24.60;81.50;;;;;;4955457;29;20500;-88
2023/10/03 19:39:39;;;;;;;1.50;1.30;;;24.60;81.60;;;;;;4955474;29;20446;-88
2023/10/03 19:42:06;;;;;;;1.67;1.20;;;24.60;81.60;;;;;;4955324;29;21008;-88
2023/10/03 19:44:33;;;;;;;1.80;1.23;;;24.50;81.40;;;;;;4955450;29;20521;-88
2023/10/03 19:47:03;;;;;;;2.17;1.73;;;24.50;81.50;;;;;;4955331;28;20442;-88
2023/10/03 19:49:34;;;;;;;1.37;1.27;;;24.50;81.40;;;;;;4955516;29;20545;-89
2023/10/03 19:52:01;;;;;;;1.60;1.40;;;24.50;81.40;;;;;;4955320;29;20453;-88
2023/10/03 19:54:31;;;;;;;1.30;1.17;;;24.60;81.50;;;;;;4955188;28;20941;-88
2023/10/03 19:56:59;;;;;;;1.47;1.20;;;24.60;81.50;;;;;;4954918;28;20945;-88
2023/10/03 19:59:26;;;;;;;1.40;1.30;;;24.50;81.40;;;;;;4955251;29;20944;-88
2023/10/03 20:01:53;;;;;;;1.50;1.20;;;24.60;81.50;;;;;;4955101;29;20560;-88
2023/10/03 20:04:21;;;;;;;1.20;1.07;;;24.50;81.40;;;;;;4955221;29;20541;-88
2023/10/03 20:06:48;;;;;;;1.50;1.30;;;24.50;81.40;;;;;;4955381;29;20793;-89
2023/10/03 20:09:16;;;;;;;1.40;1.30;;;24.50;81.40;;;;;;4955154;29;20449;-89
2023/10/03 20:11:43;;;;;;;1.57;1.13;;;24.50;81.40;;;;;;4955062;29;20462;-88
2023/10/03 20:14:10;;;;;;;1.80;1.30;;;24.50;81.40;;;;;;4955061;29;20441;-89
2023/10/03 20:16:38;;;;;;;1.40;1.30;;;24.50;81.30;;;;;;4954988;29;20444;-88
2023/10/03 20:19:06;;;;;;;1.40;1.30;;;24.50;81.40;;;;;;4955170;29;20478;-88
2023/10/03 20:21:34;;;;;;;1.37;1.20;;;24.50;81.40;;;;;;4954899;29;20501;-88
2023/10/03 20:24:01;;;;;;;1.20;1.00;;;24.50;81.30;;;;;;4954912;29;20568;-88
2023/10/03 20:26:30;;;;;;;2.10;1.57;;;24.50;81.40;;;;;;4955084;29;20442;-89
2023/10/03 20:28:56;;;;;;;1.73;1.20;;;24.50;82.20;;;;;;4954992;29;20457;-89
2023/10/03 20:31:23;;;;;;;1.43;1.20;;;24.50;81.40;;;;;;4954845;29;20465;-88
2023/10/03 20:33:50;;;;;;;1.27;0.97;;;24.50;81.30;;;;;;4954860;28;20453;-88
2023/10/03 20:36:17;;;;;;;1.40;1.30;;;24.50;81.40;;;;;;4954815;29;20441;-88
2023/10/03 20:38:46;;;;;;;1.60;1.30;;;24.50;81.40;;;;;;4954945;29;20889;-88
2023/10/03 20:41:13;;;;;;;1.53;1.43;;;24.50;81.40;;;;;;4954792;29;20885;-88
2023/10/03 20:43:41;;;;;;;1.63;1.37;;;24.50;81.30;;;;;;4954671;29;20485;-88
2023/10/03 20:46:11;;;;;;;1.60;1.43;;;24.50;81.30;;;;;;4954832;29;20456;-88
2023/10/03 20:48:39;;;;;;;1.80;1.40;;;24.50;81.30;;;;;;4954811;29;20442;-88
2023/10/03 20:51:07;;;;;;;1.70;1.40;;;24.50;81.30;;;;;;4954872;29;20446;-89
2023/10/03 20:53:35;;;;;;;1.40;1.10;;;24.50;81.30;;;;;;4954723;28;20442;-88
2023/10/03 20:56:03;;;;;;;3.00;1.60;;;24.50;81.30;;;;;;4954598;29;20448;-88
2023/10/03 20:58:30;;;;;;;1.70;1.40;;;24.50;81.20;;;;;;4954693;28;20529;-88
2023/10/03 21:00:55;;;;;;;1.50;1.37;;;24.50;81.10;;;;;;4954602;29;20452;-88
2023/10/03 21:03:22;;;;;;;1.50;1.30;;;24.50;81.20;;;;;;4954579;29;20577;-88
2023/10/03 21:05:50;;;;;;;1.63;1.50;;;24.50;81.30;;;;;;4954704;29;20293;-88
2023/10/03 21:08:17;;;;;;;1.83;1.40;;;24.50;81.20;;;;;;4956316;28;20454;-88
2023/10/03 21:10:46;;;;;;;1.53;1.43;;;24.50;81.20;;;;;;4958063;29;20458;-88
2023/10/03 21:13:15;;;;;;;1.77;1.67;;;24.50;81.10;;;;;;4957897;28;20540;-88
2023/10/03 21:15:41;;;;;;;1.33;1.13;;;24.50;81.20;;;;;;4957956;29;20948;-88
2023/10/03 21:18:08;;;;;;;1.97;1.80;;;24.50;81.10;;;;;;4958227;29;20451;-88
2023/10/03 21:20:36;;;;;;;1.30;1.10;;;24.50;81.10;;;;;;4958015;29;20443;-88
2023/10/03 21:23:04;;;;;;;1.40;1.20;;;24.50;81.10;;;;;;4957787;29;20489;-88
2023/10/03 21:25:31;;;;;;;1.60;1.50;;;24.50;81.10;;;;;;4958025;29;20860;-88
2023/10/03 21:27:58;;;;;;;1.63;1.47;;;24.50;81.10;;;;;;4957828;29;20448;-88
2023/10/03 21:30:27;;;;;;;1.60;1.43;;;24.40;81.00;;;;;;4957859;28;20434;-88
2023/10/03 21:32:54;;;;;;;2.00;1.33;;;24.40;81.00;;;;;;4957710;29;21012;-88
2023/10/03 21:35:20;;;;;;;1.50;1.40;;;24.50;81.10;;;;;;4957866;28;20438;-88
2023/10/03 21:37:48;;;;;;;2.47;1.57;;;24.50;81.10;;;;;;4957571;29;20456;-88
2023/10/03 21:40:16;;;;;;;2.20;1.50;;;24.50;81.10;;;;;;4957578;29;20491;-88
2023/10/03 21:42:43;;;;;;;3.00;1.80;;;24.40;80.20;;;;;;4957516;28;20489;-88
2023/10/03 21:45:12;;;;;;;2.33;1.90;;;24.40;79.00;;;;;;4957327;28;20545;-89
2023/10/03 21:47:41;;;;;;;1.70;1.43;;;24.40;80.00;;;;;;4957541;29;20446;-88
2023/10/03 21:50:08;;;;;;;3.00;1.70;;;24.40;80.50;;;;;;4956734;28;20464;-88
2023/10/03 21:52:36;;;;;;;1.80;1.47;;;24.40;80.90;;;;;;4954733;28;20468;-86
2023/10/03 21:55:03;;;;;;;2.17;1.50;;;24.40;81.20;;;;;;4957134;28;20517;-85
2023/10/03 21:57:29;;;;;;;2.03;1.83;;;24.40;81.20;;;;;;4955857;29;20960;-87
2023/10/03 21:59:56;;;;;;;2.57;1.47;;;24.40;81.00;;;;;;4956284;29;20811;-86
2023/10/03 22:02:24;;;;;;;1.40;1.20;;;24.50;80.90;;;;;;4956803;29;20441;-86
2023/10/03 22:04:52;;;;;;;1.73;1.27;;;24.50;80.90;;;;;;4956900;29;20501;-87
2023/10/03 22:07:19;;;;;;;2.30;1.80;;;24.50;80.70;;;;;;4955096;29;20449;-87